sensor_id;sensor_type;location;lat;lon;timestamp;temperature;humidity
21149;DHT22;10732;51.472;6.466;2024-01-16T00:00:52;0.20;99.90
21149;DHT22;10732;51.472;6.466;2024-01-16T00:03:18;0.20;99.90
21149;DHT22;10732;51.472;6.466;2024-01-16T00:05:43;0.10;99.90
21149;DHT22;10732;51.472;6.466;2024-01-16T00:08:09;0.10;99.90
21149;DHT22;10732;51.472;6.466;2024-01-16T00:10:34;0.10;99.90
21149;DHT22;10732;51.472;6.466;2024-01-16T00:13:00;0.10;99.90
21149;DHT22;10732;51.472;6.466;2024-01-16T00:15:25;0.10;99.90
21149;DHT22;10732;51.472;6.466;2024-01-16T00:17:51;0.20;99.90
21149;DHT22;10732;51.472;6.466;2024-01-16T00:20:16;0.10;99.90
21149;DHT22;10732;51.472;6.466;2024-01-16T00:22:42;0.20;99.90
21149;DHT22;10732;51.472;6.466;2024-01-16T00:25:08;0.10;99.90
21149;DHT22;10732;51.472;6.466;2024-01-16T00:27:33;0.20;99.90
21149;DHT22;10732;51.472;6.466;2024-01-16T00:29:59;0.20;99.90
21149;DHT22;10732;51.472;6.466;2024-01-16T00:32:24;0.20;99.90
21149;DHT22;10732;51.472;6.466;2024-01-16T00:34:50;0.20;99.90
21149;DHT22;10732;51.472;6.466;2024-01-16T00:37:16;0.30;99.90
21149;DHT22;10732;51.472;6.466;2024-01-16T00:39:42;0.30;99.90
21149;DHT22;10732;51.472;6.466;2024-01-16T00:42:08;0.20;99.90
21149;DHT22;10732;51.472;6.466;2024-01-16T00:44:33;0.20;99.90
21149;DHT22;10732;51.472;6.466;2024-01-16T00:47:00;0.30;99.90
21149;DHT22;10732;51.472;6.466;2024-01-16T00:49:27;0.30;99.90
21149;DHT22;10732;51.472;6.466;2024-01-16T00:51:53;0.30;99.90
21149;DHT22;10732;51.472;6.466;2024-01-16T00:54:18;0.30;99.90
21149;DHT22;10732;51.472;6.466;2024-01-16T00:56:44;0.30;99.90
21149;DHT22;10732;51.472;6.466;2024-01-16T00:59:09;0.30;99.90
21149;DHT22;10732;51.472;6.466;2024-01-16T01:01:37;0.30;99.90
21149;DHT22;10732;51.472;6.466;2024-01-16T01:04:03;0.30;99.90
21149;DHT22;10732;51.472;6.466;2024-01-16T01:06:28;0.30;99.90
21149;DHT22;10732;51.472;6.466;2024-01-16T01:08:54;0.40;99.90
21149;DHT22;10732;51.472;6.466;2024-01-16T01:11:19;0.40;99.90
21149;DHT22;10732;51.472;6.466;2024-01-16T01:13:45;0.40;99.90
21149;DHT22;10732;51.472;6.466;2024-01-16T01:16:11;0.40;99.90
21149;DHT22;10732;51.472;6.466;2024-01-16T01:18:36;0.40;99.90
21149;DHT22;10732;51.472;6.466;2024-01-16T01:21:02;0.40;99.90
21149;DHT22;10732;51.472;6.466;2024-01-16T01:23:27;0.40;99.90
21149;DHT22;10732;51.472;6.466;2024-01-16T01:25:53;0.40;99.90
21149;DHT22;10732;51.472;6.466;2024-01-16T01:28:18;0.40;99.90
21149;DHT22;10732;51.472;6.466;2024-01-16T01:30:44;0.40;99.90
21149;DHT22;10732;51.472;6.466;2024-01-16T01:33:10;0.40;99.90
21149;DHT22;10732;51.472;6.466;2024-01-16T01:35:37;0.40;99.90
21149;DHT22;10732;51.472;6.466;2024-01-16T01:38:02;0.40;99.90
21149;DHT22;10732;51.472;6.466;2024-01-16T01:40:28;0.40;99.90
21149;DHT22;10732;51.472;6.466;2024-01-16T01:42:53;0.40;99.90
21149;DHT22;10732;51.472;6.466;2024-01-16T01:45:19;0.40;99.90
21149;DHT22;10732;51.472;6.466;2024-01-16T01:47:45;0.40;99.90
21149;DHT22;10732;51.472;6.466;2024-01-16T01:50:11;0.40;99.90
21149;DHT22;10732;51.472;6.466;2024-01-16T01:52:39;0.40;99.90
21149;DHT22;10732;51.472;6.466;2024-01-16T01:55:09;0.40;99.90
21149;DHT22;10732;51.472;6.466;2024-01-16T01:57:35;0.40;99.90
21149;DHT22;10732;51.472;6.466;2024-01-16T02:00:01;0.40;99.90
21149;DHT22;10732;51.472;6.466;2024-01-16T02:02:28;0.40;99.90
21149;DHT22;10732;51.472;6.466;2024-01-16T02:04:54;0.40;99.90
21149;DHT22;10732;51.472;6.466;2024-01-16T02:07:20;0.40;99.90
21149;DHT22;10732;51.472;6.466;2024-01-16T02:09:46;0.40;99.90
21149;DHT22;10732;51.472;6.466;2024-01-16T02:12:12;0.40;99.90
21149;DHT22;10732;51.472;6.466;2024-01-16T02:14:38;0.50;99.90
21149;DHT22;10732;51.472;6.466;2024-01-16T02:17:04;0.50;99.90
21149;DHT22;10732;51.472;6.466;2024-01-16T02:19:29;0.50;99.90
21149;DHT22;10732;51.472;6.466;2024-01-16T02:21:59;0.50;99.90
21149;DHT22;10732;51.472;6.466;2024-01-16T02:24:24;0.50;99.90
21149;DHT22;10732;51.472;6.466;2024-01-16T02:26:50;0.50;99.90
21149;DHT22;10732;51.472;6.466;2024-01-16T02:29:16;0.50;99.90
21149;DHT22;10732;51.472;6.466;2024-01-16T02:31:41;0.40;99.90
21149;DHT22;10732;51.472;6.466;2024-01-16T02:34:07;0.40;99.90
21149;DHT22;10732;51.472;6.466;2024-01-16T02:36:34;0.40;99.90
21149;DHT22;10732;51.472;6.466;2024-01-16T02:38:59;0.40;99.90
21149;DHT22;10732;51.472;6.466;2024-01-16T02:41:25;0.40;99.90
21149;DHT22;10732;51.472;6.466;2024-01-16T02:43:51;0.40;99.90
21149;DHT22;10732;51.472;6.466;2024-01-16T02:46:16;0.40;99.90
21149;DHT22;10732;51.472;6.466;2024-01-16T02:48:42;0.40;99.90
21149;DHT22;10732;51.472;6.466;2024-01-16T02:51:08;0.40;99.90
21149;DHT22;10732;51.472;6.466;2024-01-16T02:53:34;0.40;99.90
21149;DHT22;10732;51.472;6.466;2024-01-16T02:55:59;0.40;99.90
21149;DHT22;10732;51.472;6.466;2024-01-16T02:58:30;0.40;99.90
21149;DHT22;10732;51.472;6.466;2024-01-16T03:00:56;0.40;99.90
21149;DHT22;10732;51.472;6.466;2024-01-16T03:03:22;0.40;99.90
21149;DHT22;10732;51.472;6.466;2024-01-16T03:05:48;0.40;99.90
21149;DHT22;10732;51.472;6.466;2024-01-16T03:08:13;0.30;99.90
21149;DHT22;10732;51.472;6.466;2024-01-16T03:10:39;0.30;99.90
21149;DHT22;10732;51.472;6.466;2024-01-16T03:13:05;0.30;99.90
21149;DHT22;10732;51.472;6.466;2024-01-16T03:15:30;0.30;99.90
21149;DHT22;10732;51.472;6.466;2024-01-16T03:17:57;0.30;99.90
21149;DHT22;10732;51.472;6.466;2024-01-16T03:20:23;0.20;99.90
21149;DHT22;10732;51.472;6.466;2024-01-16T03:22:49;0.20;99.90
21149;DHT22;10732;51.472;6.466;2024-01-16T03:25:15;0.20;99.90
21149;DHT22;10732;51.472;6.466;2024-01-16T03:27:41;0.30;99.90
21149;DHT22;10732;51.472;6.466;2024-01-16T03:30:07;0.30;99.90
21149;DHT22;10732;51.472;6.466;2024-01-16T03:32:35;0.30;99.90
21149;DHT22;10732;51.472;6.466;2024-01-16T03:35:00;0.30;99.90
21149;DHT22;10732;51.472;6.466;2024-01-16T03:37:26;0.30;99.90
21149;DHT22;10732;51.472;6.466;2024-01-16T03:39:51;0.20;99.90
21149;DHT22;10732;51.472;6.466;2024-01-16T03:42:17;0.20;99.90
21149;DHT22;10732;51.472;6.466;2024-01-16T03:44:43;0.20;99.90
21149;DHT22;10732;51.472;6.466;2024-01-16T03:47:08;0.10;99.90
21149;DHT22;10732;51.472;6.466;2024-01-16T03:49:34;0.20;99.90
21149;DHT22;10732;51.472;6.466;2024-01-16T03:52:00;0.20;99.90
21149;DHT22;10732;51.472;6.466;2024-01-16T03:54:26;0.30;99.90
21149;DHT22;10732;51.472;6.466;2024-01-16T03:56:52;0.30;99.90
21149;DHT22;10732;51.472;6.466;2024-01-16T03:59:18;0.30;99.90
21149;DHT22;10732;51.472;6.466;2024-01-16T04:01:43;0.30;99.90
21149;DHT22;10732;51.472;6.466;2024-01-16T04:04:11;0.30;99.90
21149;DHT22;10732;51.472;6.466;2024-01-16T04:06:37;0.30;99.90
21149;DHT22;10732;51.472;6.466;2024-01-16T04:09:03;0.40;99.90
21149;DHT22;10732;51.472;6.466;2024-01-16T04:11:29;0.40;99.90
21149;DHT22;10732;51.472;6.466;2024-01-16T04:13:55;0.40;99.90
21149;DHT22;10732;51.472;6.466;2024-01-16T04:16:21;0.40;99.90
21149;DHT22;10732;51.472;6.466;2024-01-16T04:18:47;0.40;99.90
21149;DHT22;10732;51.472;6.466;2024-01-16T04:21:13;0.40;99.90
21149;DHT22;10732;51.472;6.466;2024-01-16T04:23:39;0.40;99.90
21149;DHT22;10732;51.472;6.466;2024-01-16T04:26:04;0.40;99.90
21149;DHT22;10732;51.472;6.466;2024-01-16T04:28:30;0.40;99.90
21149;DHT22;10732;51.472;6.466;2024-01-16T04:30:56;0.40;99.90
21149;DHT22;10732;51.472;6.466;2024-01-16T04:33:21;0.40;99.90
21149;DHT22;10732;51.472;6.466;2024-01-16T04:35:47;0.50;99.90
21149;DHT22;10732;51.472;6.466;2024-01-16T04:38:13;0.40;99.90
21149;DHT22;10732;51.472;6.466;2024-01-16T04:40:38;0.40;99.90
21149;DHT22;10732;51.472;6.466;2024-01-16T04:43:04;0.40;99.90
21149;DHT22;10732;51.472;6.466;2024-01-16T04:45:29;0.30;99.90
21149;DHT22;10732;51.472;6.466;2024-01-16T04:47:55;0.20;99.90
21149;DHT22;10732;51.472;6.466;2024-01-16T04:50:20;0.20;99.90
21149;DHT22;10732;51.472;6.466;2024-01-16T04:52:46;0.10;99.90
21149;DHT22;10732;51.472;6.466;2024-01-16T04:55:11;0.10;99.90
21149;DHT22;10732;51.472;6.466;2024-01-16T04:57:37;0.00;99.90
21149;DHT22;10732;51.472;6.466;2024-01-16T05:00:03;0.00;99.90
21149;DHT22;10732;51.472;6.466;2024-01-16T05:02:35;0.00;99.90
21149;DHT22;10732;51.472;6.466;2024-01-16T05:05:01;0.00;99.90
21149;DHT22;10732;51.472;6.466;2024-01-16T05:07:26;-0.10;99.90
21149;DHT22;10732;51.472;6.466;2024-01-16T05:09:52;-0.10;99.90
21149;DHT22;10732;51.472;6.466;2024-01-16T05:12:19;0.00;99.90
21149;DHT22;10732;51.472;6.466;2024-01-16T05:14:44;0.00;99.90
21149;DHT22;10732;51.472;6.466;2024-01-16T05:17:10;-0.10;99.90
21149;DHT22;10732;51.472;6.466;2024-01-16T05:19:35;-0.10;99.90
21149;DHT22;10732;51.472;6.466;2024-01-16T05:22:01;-0.10;99.90
21149;DHT22;10732;51.472;6.466;2024-01-16T05:24:26;-0.10;99.90
21149;DHT22;10732;51.472;6.466;2024-01-16T05:26:52;-0.10;99.90
21149;DHT22;10732;51.472;6.466;2024-01-16T05:29:18;-0.10;99.90
21149;DHT22;10732;51.472;6.466;2024-01-16T05:31:44;-0.10;99.90
21149;DHT22;10732;51.472;6.466;2024-01-16T05:34:10;-0.10;99.90
21149;DHT22;10732;51.472;6.466;2024-01-16T05:36:36;-0.10;99.90
21149;DHT22;10732;51.472;6.466;2024-01-16T05:39:02;-0.10;99.90
21149;DHT22;10732;51.472;6.466;2024-01-16T05:41:32;-0.20;99.90
21149;DHT22;10732;51.472;6.466;2024-01-16T05:43:58;-0.20;99.90
21149;DHT22;10732;51.472;6.466;2024-01-16T05:46:24;-0.30;99.90
21149;DHT22;10732;51.472;6.466;2024-01-16T05:48:51;-0.30;99.90
21149;DHT22;10732;51.472;6.466;2024-01-16T05:51:17;-0.30;99.90
21149;DHT22;10732;51.472;6.466;2024-01-16T05:53:43;-0.30;99.90
21149;DHT22;10732;51.472;6.466;2024-01-16T05:56:09;-0.30;99.90
21149;DHT22;10732;51.472;6.466;2024-01-16T05:58:34;-0.30;99.90
21149;DHT22;10732;51.472;6.466;2024-01-16T06:01:04;-0.30;99.90
21149;DHT22;10732;51.472;6.466;2024-01-16T06:03:30;-0.40;99.90
21149;DHT22;10732;51.472;6.466;2024-01-16T06:05:56;-0.40;99.90
21149;DHT22;10732;51.472;6.466;2024-01-16T06:08:21;-0.40;99.90
21149;DHT22;10732;51.472;6.466;2024-01-16T06:10:47;-0.50;99.90
21149;DHT22;10732;51.472;6.466;2024-01-16T06:13:12;-0.50;99.90
21149;DHT22;10732;51.472;6.466;2024-01-16T06:15:38;-0.50;99.90
21149;DHT22;10732;51.472;6.466;2024-01-16T06:18:04;-0.50;99.90
21149;DHT22;10732;51.472;6.466;2024-01-16T06:20:29;-0.40;99.90
21149;DHT22;10732;51.472;6.466;2024-01-16T06:22:56;-0.40;99.90
21149;DHT22;10732;51.472;6.466;2024-01-16T06:25:21;-0.40;99.90
21149;DHT22;10732;51.472;6.466;2024-01-16T06:27:47;-0.50;99.90
21149;DHT22;10732;51.472;6.466;2024-01-16T06:30:13;-0.50;99.90
21149;DHT22;10732;51.472;6.466;2024-01-16T06:32:38;-0.50;99.90
21149;DHT22;10732;51.472;6.466;2024-01-16T06:35:04;-0.50;99.90
21149;DHT22;10732;51.472;6.466;2024-01-16T06:37:31;-0.50;99.90
21149;DHT22;10732;51.472;6.466;2024-01-16T06:39:56;-0.50;99.90
21149;DHT22;10732;51.472;6.466;2024-01-16T06:42:22;-0.50;99.90
21149;DHT22;10732;51.472;6.466;2024-01-16T06:44:47;-0.40;99.90
21149;DHT22;10732;51.472;6.466;2024-01-16T06:47:13;-0.40;99.90
21149;DHT22;10732;51.472;6.466;2024-01-16T06:49:38;-0.40;99.90
21149;DHT22;10732;51.472;6.466;2024-01-16T06:52:04;-0.40;99.90
21149;DHT22;10732;51.472;6.466;2024-01-16T06:54:29;-0.50;99.90
21149;DHT22;10732;51.472;6.466;2024-01-16T06:56:55;-0.40;99.90
21149;DHT22;10732;51.472;6.466;2024-01-16T06:59:21;-0.40;99.90
21149;DHT22;10732;51.472;6.466;2024-01-16T07:01:47;-0.40;99.90
21149;DHT22;10732;51.472;6.466;2024-01-16T07:04:12;-0.50;99.90
21149;DHT22;10732;51.472;6.466;2024-01-16T07:06:39;-0.40;99.90
21149;DHT22;10732;51.472;6.466;2024-01-16T07:09:05;-0.50;99.90
21149;DHT22;10732;51.472;6.466;2024-01-16T07:11:31;-0.50;99.90
21149;DHT22;10732;51.472;6.466;2024-01-16T07:13:56;-0.50;99.90
21149;DHT22;10732;51.472;6.466;2024-01-16T07:16:22;-0.50;99.90
21149;DHT22;10732;51.472;6.466;2024-01-16T07:18:48;-0.50;99.90
21149;DHT22;10732;51.472;6.466;2024-01-16T07:21:17;-0.50;99.90
21149;DHT22;10732;51.472;6.466;2024-01-16T07:23:43;-0.50;99.90
21149;DHT22;10732;51.472;6.466;2024-01-16T07:26:09;-0.50;99.90
21149;DHT22;10732;51.472;6.466;2024-01-16T07:28:34;-0.50;99.90
21149;DHT22;10732;51.472;6.466;2024-01-16T07:31:00;-0.50;99.90
21149;DHT22;10732;51.472;6.466;2024-01-16T07:33:25;-0.50;99.90
21149;DHT22;10732;51.472;6.466;2024-01-16T07:35:51;-0.50;99.90
21149;DHT22;10732;51.472;6.466;2024-01-16T07:38:16;-0.60;99.90
21149;DHT22;10732;51.472;6.466;2024-01-16T07:40:42;-0.50;99.90
21149;DHT22;10732;51.472;6.466;2024-01-16T07:43:07;-0.50;99.90
21149;DHT22;10732;51.472;6.466;2024-01-16T07:45:33;-0.50;99.90
21149;DHT22;10732;51.472;6.466;2024-01-16T07:47:58;-0.50;99.90
21149;DHT22;10732;51.472;6.466;2024-01-16T07:50:24;-0.40;99.90
21149;DHT22;10732;51.472;6.466;2024-01-16T07:52:50;-0.40;99.90
21149;DHT22;10732;51.472;6.466;2024-01-16T07:55:16;-0.40;99.90
21149;DHT22;10732;51.472;6.466;2024-01-16T07:57:43;-0.40;99.90
21149;DHT22;10732;51.472;6.466;2024-01-16T08:00:09;-0.40;99.90
21149;DHT22;10732;51.472;6.466;2024-01-16T08:02:37;-0.40;99.90
21149;DHT22;10732;51.472;6.466;2024-01-16T08:05:03;-0.40;99.90
21149;DHT22;10732;51.472;6.466;2024-01-16T08:07:29;-0.40;99.90
21149;DHT22;10732;51.472;6.466;2024-01-16T08:09:55;-0.40;99.90
21149;DHT22;10732;51.472;6.466;2024-01-16T08:12:20;-0.30;99.90
21149;DHT22;10732;51.472;6.466;2024-01-16T08:14:46;-0.30;99.90
21149;DHT22;10732;51.472;6.466;2024-01-16T08:17:11;-0.30;99.90
21149;DHT22;10732;51.472;6.466;2024-01-16T08:19:37;-0.20;99.90
21149;DHT22;10732;51.472;6.466;2024-01-16T08:22:02;-0.20;99.90
21149;DHT22;10732;51.472;6.466;2024-01-16T08:24:28;-0.20;99.90
21149;DHT22;10732;51.472;6.466;2024-01-16T08:26:53;-0.20;99.90
21149;DHT22;10732;51.472;6.466;2024-01-16T08:29:19;-0.20;99.90
21149;DHT22;10732;51.472;6.466;2024-01-16T08:31:45;-0.20;99.90
21149;DHT22;10732;51.472;6.466;2024-01-16T08:34:11;-0.20;99.90
21149;DHT22;10732;51.472;6.466;2024-01-16T08:36:36;-0.20;99.90
21149;DHT22;10732;51.472;6.466;2024-01-16T08:39:02;-0.20;99.90
21149;DHT22;10732;51.472;6.466;2024-01-16T08:41:28;-0.10;99.90
21149;DHT22;10732;51.472;6.466;2024-01-16T08:43:53;-0.10;99.90
21149;DHT22;10732;51.472;6.466;2024-01-16T08:46:19;-0.10;99.90
21149;DHT22;10732;51.472;6.466;2024-01-16T08:48:46;-0.10;99.90
21149;DHT22;10732;51.472;6.466;2024-01-16T08:51:12;0.00;99.90
21149;DHT22;10732;51.472;6.466;2024-01-16T08:53:38;0.00;99.90
21149;DHT22;10732;51.472;6.466;2024-01-16T08:56:03;-0.10;99.90
21149;DHT22;10732;51.472;6.466;2024-01-16T08:58:32;-0.10;99.90
21149;DHT22;10732;51.472;6.466;2024-01-16T09:01:02;0.00;99.90
21149;DHT22;10732;51.472;6.466;2024-01-16T09:03:27;0.10;99.90
21149;DHT22;10732;51.472;6.466;2024-01-16T09:05:53;0.10;99.90
21149;DHT22;10732;51.472;6.466;2024-01-16T09:08:18;0.20;99.90
21149;DHT22;10732;51.472;6.466;2024-01-16T09:10:44;0.20;99.90
21149;DHT22;10732;51.472;6.466;2024-01-16T09:13:10;0.10;99.90
21149;DHT22;10732;51.472;6.466;2024-01-16T09:15:35;0.10;99.90
21149;DHT22;10732;51.472;6.466;2024-01-16T09:18:01;0.20;99.90
21149;DHT22;10732;51.472;6.466;2024-01-16T09:20:26;0.20;99.90
21149;DHT22;10732;51.472;6.466;2024-01-16T09:22:52;0.20;99.90
21149;DHT22;10732;51.472;6.466;2024-01-16T09:25:18;0.20;99.90
21149;DHT22;10732;51.472;6.466;2024-01-16T09:27:44;0.30;99.90
21149;DHT22;10732;51.472;6.466;2024-01-16T09:30:09;0.30;99.90
21149;DHT22;10732;51.472;6.466;2024-01-16T09:32:35;0.20;99.90
21149;DHT22;10732;51.472;6.466;2024-01-16T09:35:02;0.30;99.90
21149;DHT22;10732;51.472;6.466;2024-01-16T09:37:29;0.30;99.90
21149;DHT22;10732;51.472;6.466;2024-01-16T09:39:55;0.30;99.90
21149;DHT22;10732;51.472;6.466;2024-01-16T09:42:21;0.30;99.90
21149;DHT22;10732;51.472;6.466;2024-01-16T09:44:48;0.30;99.90
21149;DHT22;10732;51.472;6.466;2024-01-16T09:47:15;0.40;99.90
21149;DHT22;10732;51.472;6.466;2024-01-16T09:49:42;0.40;99.90
21149;DHT22;10732;51.472;6.466;2024-01-16T09:52:09;0.40;99.90
21149;DHT22;10732;51.472;6.466;2024-01-16T09:54:34;0.40;99.90
21149;DHT22;10732;51.472;6.466;2024-01-16T09:57:01;0.40;99.90
21149;DHT22;10732;51.472;6.466;2024-01-16T09:59:29;0.50;99.90
21149;DHT22;10732;51.472;6.466;2024-01-16T10:01:55;0.50;99.90
21149;DHT22;10732;51.472;6.466;2024-01-16T10:04:21;0.60;99.90
21149;DHT22;10732;51.472;6.466;2024-01-16T10:06:47;0.70;99.90
21149;DHT22;10732;51.472;6.466;2024-01-16T10:09:15;0.70;99.90
21149;DHT22;10732;51.472;6.466;2024-01-16T10:11:41;0.90;99.90
21149;DHT22;10732;51.472;6.466;2024-01-16T10:14:08;1.10;99.90
21149;DHT22;10732;51.472;6.466;2024-01-16T10:16:59;1.20;99.90
21149;DHT22;10732;51.472;6.466;2024-01-16T10:19:29;1.30;99.90
21149;DHT22;10732;51.472;6.466;2024-01-16T10:22:03;1.20;99.90
21149;DHT22;10732;51.472;6.466;2024-01-16T10:24:29;1.20;99.90
21149;DHT22;10732;51.472;6.466;2024-01-16T10:27:00;1.20;99.90
21149;DHT22;10732;51.472;6.466;2024-01-16T10:29:26;1.30;99.90
21149;DHT22;10732;51.472;6.466;2024-01-16T10:31:52;1.30;99.90
21149;DHT22;10732;51.472;6.466;2024-01-16T10:34:22;1.30;99.90
21149;DHT22;10732;51.472;6.466;2024-01-16T10:36:58;1.40;99.90
21149;DHT22;10732;51.472;6.466;2024-01-16T10:39:23;1.50;99.90
21149;DHT22;10732;51.472;6.466;2024-01-16T10:41:56;1.80;99.90
21149;DHT22;10732;51.472;6.466;2024-01-16T10:44:22;2.10;99.90
21149;DHT22;10732;51.472;6.466;2024-01-16T10:46:48;2.10;99.90
21149;DHT22;10732;51.472;6.466;2024-01-16T10:49:13;2.60;99.90
21149;DHT22;10732;51.472;6.466;2024-01-16T10:51:43;2.70;99.90
21149;DHT22;10732;51.472;6.466;2024-01-16T10:54:12;2.90;99.90
21149;DHT22;10732;51.472;6.466;2024-01-16T10:56:44;3.20;99.90
21149;DHT22;10732;51.472;6.466;2024-01-16T10:59:24;3.50;99.90
21149;DHT22;10732;51.472;6.466;2024-01-16T11:01:53;4.30;99.90
21149;DHT22;10732;51.472;6.466;2024-01-16T11:04:24;4.20;99.90
21149;DHT22;10732;51.472;6.466;2024-01-16T11:06:51;4.70;99.90
21149;DHT22;10732;51.472;6.466;2024-01-16T11:09:17;5.20;99.90
21149;DHT22;10732;51.472;6.466;2024-01-16T11:11:44;4.80;99.90
21149;DHT22;10732;51.472;6.466;2024-01-16T11:14:12;5.10;99.90
21149;DHT22;10732;51.472;6.466;2024-01-16T11:16:39;5.20;99.90
21149;DHT22;10732;51.472;6.466;2024-01-16T11:19:08;5.00;99.90
21149;DHT22;10732;51.472;6.466;2024-01-16T11:21:35;4.80;99.90
21149;DHT22;10732;51.472;6.466;2024-01-16T11:24:01;5.00;99.90
21149;DHT22;10732;51.472;6.466;2024-01-16T11:28:54;4.90;99.90
21149;DHT22;10732;51.472;6.466;2024-01-16T11:31:42;5.40;99.90
21149;DHT22;10732;51.472;6.466;2024-01-16T11:34:09;5.60;99.90
21149;DHT22;10732;51.472;6.466;2024-01-16T11:36:53;5.70;99.90
21149;DHT22;10732;51.472;6.466;2024-01-16T11:39:23;5.70;99.90
21149;DHT22;10732;51.472;6.466;2024-01-16T11:41:50;5.80;99.90
21149;DHT22;10732;51.472;6.466;2024-01-16T11:47:04;5.20;99.90
21149;DHT22;10732;51.472;6.466;2024-01-16T11:49:30;4.90;99.90
21149;DHT22;10732;51.472;6.466;2024-01-16T11:51:57;5.00;99.90
21149;DHT22;10732;51.472;6.466;2024-01-16T11:54:23;5.30;99.90
21149;DHT22;10732;51.472;6.466;2024-01-16T12:02:23;5.00;99.90
21149;DHT22;10732;51.472;6.466;2024-01-16T12:04:53;5.00;99.90
21149;DHT22;10732;51.472;6.466;2024-01-16T12:07:24;5.20;99.90
21149;DHT22;10732;51.472;6.466;2024-01-16T12:09:49;5.20;99.90
21149;DHT22;10732;51.472;6.466;2024-01-16T12:12:15;4.90;99.90
21149;DHT22;10732;51.472;6.466;2024-01-16T12:14:51;4.80;99.90
21149;DHT22;10732;51.472;6.466;2024-01-16T12:17:17;4.30;99.90
21149;DHT22;10732;51.472;6.466;2024-01-16T12:19:45;4.40;99.90
21149;DHT22;10732;51.472;6.466;2024-01-16T12:22:14;4.30;99.90
21149;DHT22;10732;51.472;6.466;2024-01-16T12:24:41;4.30;99.90
21149;DHT22;10732;51.472;6.466;2024-01-16T12:27:08;3.60;99.90
21149;DHT22;10732;51.472;6.466;2024-01-16T12:29:34;3.30;99.90
21149;DHT22;10732;51.472;6.466;2024-01-16T12:32:12;3.20;99.90
21149;DHT22;10732;51.472;6.466;2024-01-16T12:34:45;2.90;99.90
21149;DHT22;10732;51.472;6.466;2024-01-16T12:37:11;2.80;99.90
21149;DHT22;10732;51.472;6.466;2024-01-16T12:39:38;2.70;99.90
21149;DHT22;10732;51.472;6.466;2024-01-16T12:42:04;2.60;99.90
21149;DHT22;10732;51.472;6.466;2024-01-16T12:44:30;2.50;99.90
21149;DHT22;10732;51.472;6.466;2024-01-16T12:46:56;2.30;99.90
21149;DHT22;10732;51.472;6.466;2024-01-16T12:49:23;2.30;99.90
21149;DHT22;10732;51.472;6.466;2024-01-16T12:51:49;2.40;99.90
21149;DHT22;10732;51.472;6.466;2024-01-16T12:54:16;2.50;99.90
21149;DHT22;10732;51.472;6.466;2024-01-16T12:56:43;2.70;99.90
21149;DHT22;10732;51.472;6.466;2024-01-16T12:59:12;2.80;99.90
21149;DHT22;10732;51.472;6.466;2024-01-16T13:01:43;3.00;99.90
21149;DHT22;10732;51.472;6.466;2024-01-16T13:04:10;2.90;99.90
21149;DHT22;10732;51.472;6.466;2024-01-16T13:06:36;2.80;99.90
21149;DHT22;10732;51.472;6.466;2024-01-16T13:11:48;2.60;99.90
21149;DHT22;10732;51.472;6.466;2024-01-16T13:14:14;2.50;99.90
21149;DHT22;10732;51.472;6.466;2024-01-16T13:16:40;2.40;99.90
21149;DHT22;10732;51.472;6.466;2024-01-16T13:19:05;2.20;99.90
21149;DHT22;10732;51.472;6.466;2024-01-16T13:21:35;2.30;99.90
21149;DHT22;10732;51.472;6.466;2024-01-16T13:24:03;2.30;99.90
21149;DHT22;10732;51.472;6.466;2024-01-16T13:26:29;2.30;99.90
21149;DHT22;10732;51.472;6.466;2024-01-16T13:28:55;2.30;99.90
21149;DHT22;10732;51.472;6.466;2024-01-16T13:31:20;2.00;99.90
21149;DHT22;10732;51.472;6.466;2024-01-16T13:33:46;2.10;99.90
21149;DHT22;10732;51.472;6.466;2024-01-16T13:36:12;2.20;99.90
21149;DHT22;10732;51.472;6.466;2024-01-16T13:38:37;2.30;99.90
21149;DHT22;10732;51.472;6.466;2024-01-16T13:41:03;2.30;99.90
21149;DHT22;10732;51.472;6.466;2024-01-16T13:43:28;2.50;99.90
21149;DHT22;10732;51.472;6.466;2024-01-16T13:45:54;2.30;99.90
21149;DHT22;10732;51.472;6.466;2024-01-16T13:48:20;2.30;99.90
21149;DHT22;10732;51.472;6.466;2024-01-16T13:50:46;2.20;99.90
21149;DHT22;10732;51.472;6.466;2024-01-16T13:53:12;2.20;99.90
21149;DHT22;10732;51.472;6.466;2024-01-16T13:55:40;2.20;99.90
21149;DHT22;10732;51.472;6.466;2024-01-16T13:58:06;2.20;99.90
21149;DHT22;10732;51.472;6.466;2024-01-16T14:00:32;2.20;99.90
21149;DHT22;10732;51.472;6.466;2024-01-16T14:02:57;2.10;99.90
21149;DHT22;10732;51.472;6.466;2024-01-16T14:05:23;2.00;99.90
21149;DHT22;10732;51.472;6.466;2024-01-16T14:07:50;2.00;99.90
21149;DHT22;10732;51.472;6.466;2024-01-16T14:10:20;2.10;99.90
21149;DHT22;10732;51.472;6.466;2024-01-16T14:12:48;2.00;99.90
21149;DHT22;10732;51.472;6.466;2024-01-16T14:15:15;1.90;99.90
21149;DHT22;10732;51.472;6.466;2024-01-16T14:17:45;1.90;99.90
21149;DHT22;10732;51.472;6.466;2024-01-16T14:20:12;1.80;99.90
21149;DHT22;10732;51.472;6.466;2024-01-16T14:22:39;1.80;99.90
21149;DHT22;10732;51.472;6.466;2024-01-16T14:25:07;1.70;99.90
21149;DHT22;10732;51.472;6.466;2024-01-16T14:27:43;1.70;99.90
21149;DHT22;10732;51.472;6.466;2024-01-16T14:30:13;1.70;99.90
21149;DHT22;10732;51.472;6.466;2024-01-16T14:32:41;1.70;99.90
21149;DHT22;10732;51.472;6.466;2024-01-16T14:35:07;1.80;99.90
21149;DHT22;10732;51.472;6.466;2024-01-16T14:37:35;1.80;99.90
21149;DHT22;10732;51.472;6.466;2024-01-16T14:40:02;1.80;99.90
21149;DHT22;10732;51.472;6.466;2024-01-16T14:42:28;1.80;99.90
21149;DHT22;10732;51.472;6.466;2024-01-16T14:44:54;1.70;99.90
21149;DHT22;10732;51.472;6.466;2024-01-16T14:47:20;1.60;99.90
21149;DHT22;10732;51.472;6.466;2024-01-16T14:49:46;1.60;99.90
21149;DHT22;10732;51.472;6.466;2024-01-16T14:52:11;1.50;99.90
21149;DHT22;10732;51.472;6.466;2024-01-16T14:54:38;1.40;99.90
21149;DHT22;10732;51.472;6.466;2024-01-16T14:57:03;1.30;99.90
21149;DHT22;10732;51.472;6.466;2024-01-16T14:59:32;1.20;99.90
21149;DHT22;10732;51.472;6.466;2024-01-16T15:01:58;1.20;99.90
21149;DHT22;10732;51.472;6.466;2024-01-16T15:04:23;1.10;99.90
21149;DHT22;10732;51.472;6.466;2024-01-16T15:06:49;1.10;99.90
21149;DHT22;10732;51.472;6.466;2024-01-16T15:09:18;1.00;99.90
21149;DHT22;10732;51.472;6.466;2024-01-16T15:11:43;1.00;99.90
21149;DHT22;10732;51.472;6.466;2024-01-16T15:14:11;0.90;99.90
21149;DHT22;10732;51.472;6.466;2024-01-16T15:16:38;0.90;99.90
21149;DHT22;10732;51.472;6.466;2024-01-16T15:19:03;0.80;99.90
21149;DHT22;10732;51.472;6.466;2024-01-16T15:21:29;0.70;99.90
21149;DHT22;10732;51.472;6.466;2024-01-16T15:23:54;0.70;99.90
21149;DHT22;10732;51.472;6.466;2024-01-16T15:26:20;0.70;99.90
21149;DHT22;10732;51.472;6.466;2024-01-16T15:28:46;0.70;99.90
21149;DHT22;10732;51.472;6.466;2024-01-16T15:31:11;0.70;99.90
21149;DHT22;10732;51.472;6.466;2024-01-16T15:33:38;0.60;99.90
21149;DHT22;10732;51.472;6.466;2024-01-16T15:36:04;0.50;99.90
21149;DHT22;10732;51.472;6.466;2024-01-16T15:38:31;0.50;99.90
21149;DHT22;10732;51.472;6.466;2024-01-16T15:40:57;0.30;99.90
21149;DHT22;10732;51.472;6.466;2024-01-16T15:43:22;0.30;99.90
21149;DHT22;10732;51.472;6.466;2024-01-16T15:45:48;0.30;99.90
21149;DHT22;10732;51.472;6.466;2024-01-16T15:48:13;0.20;99.90
21149;DHT22;10732;51.472;6.466;2024-01-16T15:50:40;0.10;99.90